Time;durP1;ratioP1;P1;durP2;ratioP2;P2;SDS_P1;SDS_P2;PMS_P1;PMS_P2;Temp;Humidity;BMP_temperature;BMP_pressure;BME280_temperature;BME280_humidity;BME280_pressure;Samples;Min_cycle;Max_cycle;Signal;HPM_P1;HPM_P2
2021/12/27 00:01:40;;;;;;;3.72;3.45;;;3.30;99.90;;;;;;5045063;28;20351;-69
2021/12/27 00:04:07;;;;;;;3.92;3.33;;;3.20;99.90;;;;;;5038885;28;20323;-78
2021/12/27 00:06:34;;;;;;;4.63;3.10;;;3.20;99.90;;;;;;5039466;28;20224;-70
2021/12/27 00:09:00;;;;;;;5.20;3.08;;;3.20;99.90;;;;;;5046320;28;20286;-70
2021/12/27 00:11:28;;;;;;;3.20;2.83;;;3.20;99.90;;;;;;5046010;28;20267;-72
2021/12/27 00:13:55;;;;;;;4.00;3.22;;;3.20;99.90;;;;;;5046633;28;20633;-71
2021/12/27 00:16:22;;;;;;;2.95;2.72;;;3.20;99.90;;;;;;5043715;28;20264;-71
2021/12/27 00:18:48;;;;;;;4.85;4.28;;;3.20;99.90;;;;;;5031979;28;20277;-72
2021/12/27 00:21:15;;;;;;;3.45;2.90;;;3.20;99.90;;;;;;5041004;28;20600;-71
2021/12/27 00:23:42;;;;;;;6.03;4.30;;;3.20;99.90;;;;;;5033455;28;20233;-71
2021/12/27 00:26:09;;;;;;;6.95;4.57;;;3.20;99.90;;;;;;5046030;28;20206;-70
2021/12/27 00:28:37;;;;;;;3.10;2.85;;;3.30;99.90;;;;;;5046594;28;20267;-70
2021/12/27 00:31:04;;;;;;;6.22;3.92;;;3.20;99.90;;;;;;5037535;28;20731;-71
2021/12/27 00:33:32;;;;;;;3.65;3.35;;;3.20;99.90;;;;;;5046728;28;20591;-71
2021/12/27 00:35:59;;;;;;;4.10;3.05;;;3.30;99.90;;;;;;5046265;28;20291;-71
2021/12/27 00:38:26;;;;;;;5.38;3.40;;;3.30;99.90;;;;;;5046120;28;20259;-70
2021/12/27 00:40:52;;;;;;;3.03;2.60;;;3.30;99.90;;;;;;5046068;28;20236;-71
2021/12/27 00:43:19;;;;;;;3.15;2.85;;;3.30;99.90;;;;;;5045362;28;20238;-71
2021/12/27 00:45:47;;;;;;;3.45;2.55;;;3.30;99.90;;;;;;5045886;28;20298;-70
2021/12/27 00:48:15;;;;;;;3.22;2.92;;;3.30;99.90;;;;;;5046557;28;20210;-70
2021/12/27 00:50:42;;;;;;;3.67;3.38;;;3.30;99.90;;;;;;5045563;28;20240;-70
2021/12/27 00:53:09;;;;;;;2.67;2.47;;;3.30;99.90;;;;;;5046654;28;20249;-70
2021/12/27 00:55:35;;;;;;;3.50;3.08;;;3.40;99.90;;;;;;5046027;28;20681;-70
2021/12/27 00:58:02;;;;;;;4.07;3.78;;;3.30;99.90;;;;;;5038550;28;20280;-69
2021/12/27 01:00:29;;;;;;;4.20;3.80;;;3.30;99.90;;;;;;5045408;28;20699;-70
2021/12/27 01:02:57;;;;;;;4.13;3.80;;;3.40;99.90;;;;;;5045981;28;20716;-71
2021/12/27 01:05:25;;;;;;;3.03;2.78;;;3.40;99.90;;;;;;5046359;28;20274;-71
2021/12/27 01:07:52;;;;;;;3.63;3.33;;;3.40;99.90;;;;;;5046698;28;20861;-69
2021/12/27 01:13:16;;;;;;;2.40;2.20;;;3.40;99.90;;;;;;5038388;28;20218;-69
2021/12/27 01:15:52;;;;;;;3.70;3.38;;;3.40;99.90;;;;;;5041577;28;20233;-69
2021/12/27 01:18:21;;;;;;;4.13;3.33;;;3.40;99.90;;;;;;5044022;28;20618;-71
2021/12/27 01:20:47;;;;;;;2.90;2.70;;;3.40;99.90;;;;;;5044644;28;20206;-71
2021/12/27 01:23:15;;;;;;;3.22;2.95;;;3.40;99.90;;;;;;5044966;28;20217;-71
2021/12/27 01:25:42;;;;;;;3.85;3.47;;;3.40;99.90;;;;;;5044411;28;20579;-71
2021/12/27 01:28:09;;;;;;;2.80;2.55;;;3.40;99.90;;;;;;5045019;28;20212;-71
2021/12/27 01:30:45;;;;;;;11.95;3.95;;;3.40;99.90;;;;;;5044192;28;20286;-71
2021/12/27 01:33:12;;;;;;;3.40;2.47;;;3.40;99.90;;;;;;5045401;28;20269;-69
2021/12/27 01:35:41;;;;;;;3.83;3.53;;;3.40;99.90;;;;;;5045199;28;20222;-70
2021/12/27 01:38:07;;;;;;;3.55;3.25;;;3.40;99.90;;;;;;5043898;28;20198;-69
2021/12/27 01:40:36;;;;;;;7.57;3.40;;;3.40;99.90;;;;;;5047124;28;20552;-69
2021/12/27 01:43:08;;;;;;;3.95;3.50;;;3.50;99.90;;;;;;5040097;28;20264;-71
2021/12/27 01:45:37;;;;;;;2.47;2.28;;;3.40;99.90;;;;;;5047508;28;20744;-71
2021/12/27 01:48:06;;;;;;;5.75;3.88;;;3.50;99.90;;;;;;5044002;28;20703;-69
2021/12/27 01:50:33;;;;;;;3.60;3.30;;;3.50;99.90;;;;;;5038868;28;20213;-69
2021/12/27 01:53:02;;;;;;;3.80;3.13;;;3.50;99.90;;;;;;5045536;28;20218;-71
2021/12/27 01:55:29;;;;;;;3.67;3.10;;;3.50;99.90;;;;;;5044856;28;20237;-69
2021/12/27 01:57:56;;;;;;;4.82;2.90;;;3.50;99.90;;;;;;5042009;28;20207;-69
2021/12/27 02:00:23;;;;;;;5.50;4.00;;;3.50;99.90;;;;;;5045275;28;20236;-70
2021/12/27 02:02:49;;;;;;;3.55;3.28;;;3.50;99.90;;;;;;5039194;28;20321;-70
2021/12/27 02:05:16;;;;;;;1.98;1.88;;;3.50;99.90;;;;;;5045007;28;20206;-69
2021/12/27 02:07:43;;;;;;;5.75;4.10;;;3.50;99.90;;;;;;5044889;28;20271;-69
2021/12/27 02:10:13;;;;;;;2.83;2.47;;;3.50;99.90;;;;;;5044458;28;20206;-69
2021/12/27 02:12:40;;;;;;;3.33;3.13;;;3.50;99.90;;;;;;5037996;28;20292;-71
2021/12/27 02:15:09;;;;;;;2.65;2.40;;;3.50;99.90;;;;;;5046901;28;20877;-70
2021/12/27 02:17:37;;;;;;;6.13;3.58;;;3.50;99.90;;;;;;5047984;28;20220;-68
2021/12/27 02:20:07;;;;;;;1.45;1.35;;;3.50;99.90;;;;;;5048722;28;20260;-68
2021/12/27 02:22:36;;;;;;;2.40;1.83;;;3.60;99.90;;;;;;5046640;28;20221;-69
2021/12/27 02:25:06;;;;;;;3.55;2.45;;;3.60;99.90;;;;;;5048551;28;20209;-69
2021/12/27 02:27:32;;;;;;;2.75;2.53;;;3.60;99.90;;;;;;5047088;28;20221;-71
2021/12/27 02:29:59;;;;;;;3.45;2.65;;;3.60;99.90;;;;;;5038667;28;20275;-69
2021/12/27 02:32:26;;;;;;;2.30;2.10;;;3.60;99.90;;;;;;5046366;28;20233;-71
2021/12/27 02:34:53;;;;;;;3.17;2.90;;;3.60;99.90;;;;;;5048660;28;20254;-70
2021/12/27 02:37:21;;;;;;;3.35;3.05;;;3.60;99.90;;;;;;5048512;28;20277;-70
2021/12/27 02:39:47;;;;;;;2.50;2.30;;;3.60;99.90;;;;;;5048180;28;20297;-70
2021/12/27 02:42:17;;;;;;;4.13;2.10;;;3.60;99.90;;;;;;5048397;28;20537;-70
2021/12/27 02:44:44;;;;;;;3.28;2.83;;;3.60;99.90;;;;;;5046402;28;20579;-71
2021/12/27 02:47:11;;;;;;;2.30;1.92;;;3.60;99.90;;;;;;5047294;28;20329;-71
2021/12/27 02:49:38;;;;;;;3.35;3.05;;;3.60;99.90;;;;;;5047857;28;20210;-70
2021/12/27 02:52:05;;;;;;;3.53;3.33;;;3.60;99.90;;;;;;5044997;28;20248;-71
2021/12/27 02:54:33;;;;;;;3.80;3.20;;;3.60;99.90;;;;;;5044211;28;20270;-71
2021/12/27 02:57:00;;;;;;;4.47;3.00;;;3.60;99.90;;;;;;5043212;28;20202;-70
2021/12/27 02:59:26;;;;;;;4.30;3.88;;;3.60;99.90;;;;;;5045625;28;20214;-70
2021/12/27 03:01:53;;;;;;;3.45;3.05;;;3.70;99.90;;;;;;5058437;28;20205;-70
2021/12/27 03:04:20;;;;;;;3.75;3.10;;;3.60;99.90;;;;;;5053155;28;20714;-71
2021/12/27 03:06:46;;;;;;;6.07;3.30;;;3.60;99.90;;;;;;5054486;28;20205;-71
2021/12/27 03:09:13;;;;;;;4.20;3.55;;;3.70;99.90;;;;;;5049042;28;20229;-71
2021/12/27 03:11:41;;;;;;;3.45;3.25;;;3.70;99.90;;;;;;5044697;28;20755;-71
2021/12/27 03:14:08;;;;;;;3.17;2.88;;;3.70;99.90;;;;;;5038250;28;20256;-71
2021/12/27 03:16:34;;;;;;;3.35;3.03;;;3.70;99.90;;;;;;5046549;28;20276;-71
2021/12/27 03:19:01;;;;;;;3.83;3.28;;;3.70;99.90;;;;;;5043992;28;20202;-70
2021/12/27 03:21:28;;;;;;;5.03;3.05;;;3.70;99.90;;;;;;5047768;28;20206;-69
2021/12/27 03:23:55;;;;;;;2.45;2.25;;;3.70;99.90;;;;;;5047475;28;20305;-69
2021/12/27 03:26:22;;;;;;;4.38;2.70;;;3.70;99.90;;;;;;5046318;28;20241;-69
2021/12/27 03:28:51;;;;;;;3.45;3.15;;;3.70;99.90;;;;;;5042623;28;20607;-69
2021/12/27 03:31:19;;;;;;;4.70;2.85;;;3.70;99.90;;;;;;5041030;28;20292;-71
2021/12/27 03:33:46;;;;;;;3.53;3.22;;;3.70;99.90;;;;;;5041544;28;20237;-69
2021/12/27 03:36:13;;;;;;;3.25;3.05;;;3.70;99.90;;;;;;5046603;28;20225;-69
2021/12/27 03:38:42;;;;;;;2.10;1.88;;;3.70;99.90;;;;;;5046211;28;20323;-69
2021/12/27 03:41:12;;;;;;;3.63;3.33;;;3.70;99.90;;;;;;5047543;28;20691;-70
2021/12/27 03:43:39;;;;;;;2.97;2.78;;;3.70;99.90;;;;;;5046462;28;20270;-69
2021/12/27 03:46:07;;;;;;;3.47;3.10;;;3.70;99.90;;;;;;5047755;28;20194;-69
2021/12/27 03:48:34;;;;;;;4.78;2.47;;;3.70;99.90;;;;;;5041359;28;20713;-69
2021/12/27 03:51:02;;;;;;;4.43;2.65;;;3.70;99.90;;;;;;5047937;28;20272;-70
2021/12/27 03:53:30;;;;;;;3.10;2.80;;;3.70;99.90;;;;;;5050528;28;20213;-70
2021/12/27 03:55:57;;;;;;;4.47;4.15;;;3.70;99.90;;;;;;5047831;28;20322;-71
2021/12/27 03:58:27;;;;;;;2.78;2.58;;;3.70;99.90;;;;;;5057637;28;20230;-68
2021/12/27 04:01:13;;;;;;;3.00;2.70;;;3.70;99.90;;;;;;5049657;28;20869;-70
2021/12/27 04:03:41;;;;;;;4.97;3.08;;;3.70;99.90;;;;;;5043178;28;20238;-69
2021/12/27 04:06:08;;;;;;;3.00;2.75;;;3.70;99.90;;;;;;5041367;28;20275;-69
2021/12/27 04:08:35;;;;;;;3.92;3.63;;;3.70;99.90;;;;;;5044635;28;20217;-69
2021/12/27 04:11:01;;;;;;;3.22;2.92;;;3.70;99.90;;;;;;5037222;28;20202;-71
2021/12/27 04:13:28;;;;;;;5.35;2.58;;;3.80;99.90;;;;;;5046882;28;20234;-70
2021/12/27 04:15:55;;;;;;;3.58;2.58;;;3.80;99.90;;;;;;5037446;28;20295;-71
2021/12/27 04:18:22;;;;;;;2.53;2.05;;;3.80;99.90;;;;;;5046359;28;20256;-70
2021/12/27 04:20:50;;;;;;;4.90;3.45;;;3.80;99.90;;;;;;5044430;28;20213;-69
2021/12/27 04:23:16;;;;;;;4.90;3.42;;;3.80;99.90;;;;;;5034966;28;20796;-71
2021/12/27 04:25:43;;;;;;;3.58;2.63;;;3.80;99.90;;;;;;5040698;28;20304;-71
2021/12/27 04:28:11;;;;;;;6.20;4.13;;;3.80;99.90;;;;;;5046572;28;20305;-71
2021/12/27 04:30:38;;;;;;;3.42;2.85;;;3.80;99.90;;;;;;5043317;28;20319;-70
2021/12/27 04:33:05;;;;;;;4.07;3.40;;;3.80;99.90;;;;;;5044128;28;20723;-69
2021/12/27 04:35:32;;;;;;;3.13;2.80;;;3.90;99.90;;;;;;5046344;28;20218;-70
2021/12/27 04:38:00;;;;;;;2.65;2.45;;;3.90;99.90;;;;;;5044864;28;20264;-68
2021/12/27 04:40:30;;;;;;;3.10;2.90;;;3.90;99.90;;;;;;5044801;28;20278;-71
2021/12/27 04:43:00;;;;;;;3.55;3.03;;;3.90;99.90;;;;;;5047020;28;20242;-71
2021/12/27 04:45:27;;;;;;;2.60;2.40;;;3.90;99.90;;;;;;5039950;28;20199;-71
2021/12/27 04:47:54;;;;;;;3.63;3.25;;;4.00;99.90;;;;;;5039331;28;20279;-71
2021/12/27 04:50:21;;;;;;;3.20;2.90;;;4.00;99.90;;;;;;5045375;28;20210;-69
2021/12/27 04:52:48;;;;;;;2.92;2.72;;;4.00;99.90;;;;;;5044676;28;20225;-71
2021/12/27 04:55:16;;;;;;;3.33;3.13;;;4.00;99.90;;;;;;5045244;28;20228;-71
2021/12/27 04:57:42;;;;;;;3.10;2.38;;;4.00;99.90;;;;;;5045504;28;20265;-69
2021/12/27 05:00:10;;;;;;;6.25;2.90;;;4.00;99.90;;;;;;5044022;28;20294;-71
2021/12/27 05:02:37;;;;;;;5.57;3.00;;;4.10;99.90;;;;;;5041499;28;20283;-69
2021/12/27 05:05:04;;;;;;;3.25;3.05;;;4.00;99.90;;;;;;5045602;28;20206;-69
2021/12/27 05:07:31;;;;;;;4.13;2.75;;;4.00;99.90;;;;;;5045497;28;20202;-70
2021/12/27 05:09:58;;;;;;;3.22;2.92;;;4.00;99.90;;;;;;5045551;28;20210;-68
2021/12/27 05:12:26;;;;;;;3.47;3.17;;;4.10;99.90;;;;;;5045498;28;20233;-69
2021/12/27 05:14:53;;;;;;;3.83;2.15;;;4.10;99.90;;;;;;5044995;28;20208;-69
2021/12/27 05:17:20;;;;;;;2.80;2.65;;;4.10;99.90;;;;;;5042858;28;20673;-69
2021/12/27 05:19:46;;;;;;;3.60;3.03;;;4.10;99.90;;;;;;5044075;28;20206;-69
2021/12/27 05:22:13;;;;;;;3.60;3.25;;;4.10;99.90;;;;;;5045709;28;20754;-69
2021/12/27 05:24:40;;;;;;;4.10;3.30;;;4.20;99.90;;;;;;5045424;28;20213;-71
2021/12/27 05:27:09;;;;;;;3.42;2.83;;;4.20;99.90;;;;;;5045711;28;20218;-69
2021/12/27 05:29:37;;;;;;;4.72;3.55;;;4.20;99.90;;;;;;5044966;28;20259;-71
2021/12/27 05:32:04;;;;;;;2.88;2.50;;;4.20;99.90;;;;;;5044635;28;20617;-69
2021/12/27 05:34:31;;;;;;;3.63;3.20;;;4.20;99.90;;;;;;5044583;28;20213;-71
2021/12/27 05:36:58;;;;;;;3.72;3.08;;;4.20;99.90;;;;;;5045094;28;20218;-70
2021/12/27 05:39:25;;;;;;;4.25;3.20;;;4.30;99.90;;;;;;5044395;28;20206;-71
2021/12/27 05:41:52;;;;;;;5.68;3.33;;;4.20;99.90;;;;;;5045382;28;20206;-71
2021/12/27 05:44:19;;;;;;;2.47;1.52;;;4.30;99.90;;;;;;5041965;28;20347;-71
2021/12/27 05:46:47;;;;;;;3.05;2.85;;;4.20;99.90;;;;;;5044129;28;20202;-70
2021/12/27 05:49:15;;;;;;;2.92;2.72;;;4.30;99.90;;;;;;5044197;28;20205;-70
2021/12/27 05:51:43;;;;;;;3.58;3.22;;;4.30;99.90;;;;;;5048965;28;20289;-69
2021/12/27 05:54:12;;;;;;;2.97;2.53;;;4.30;99.90;;;;;;5038013;28;20626;-69
2021/12/27 05:56:39;;;;;;;2.75;2.55;;;4.30;99.90;;;;;;5047689;28;20228;-69
2021/12/27 05:59:06;;;;;;;1.80;1.67;;;4.30;99.90;;;;;;5049452;28;20681;-69
2021/12/27 06:01:32;;;;;;;2.90;2.35;;;4.30;99.90;;;;;;5042405;28;20243;-69
2021/12/27 06:04:01;;;;;;;3.58;3.28;;;4.40;99.90;;;;;;5046336;28;20217;-69
2021/12/27 06:06:28;;;;;;;2.92;2.25;;;4.30;99.90;;;;;;5049114;28;20232;-69
2021/12/27 06:08:54;;;;;;;5.82;3.60;;;4.40;99.90;;;;;;5048597;28;20651;-69
2021/12/27 06:11:21;;;;;;;4.00;3.35;;;4.40;99.90;;;;;;5048597;28;20198;-68
2021/12/27 06:13:48;;;;;;;2.63;1.75;;;4.40;99.90;;;;;;5048167;28;20218;-69
2021/12/27 06:16:15;;;;;;;2.42;2.22;;;4.40;99.90;;;;;;5043489;28;20761;-70
2021/12/27 06:18:41;;;;;;;5.22;3.10;;;4.40;99.90;;;;;;5045084;28;20210;-69
2021/12/27 06:21:10;;;;;;;3.00;2.80;;;4.40;99.90;;;;;;5048872;28;20213;-70
2021/12/27 06:23:36;;;;;;;2.60;2.40;;;4.50;99.90;;;;;;5044382;28;20363;-71
2021/12/27 06:26:03;;;;;;;4.00;3.38;;;4.40;99.90;;;;;;5049105;28;20202;-71
2021/12/27 06:28:31;;;;;;;1.98;1.77;;;4.40;99.90;;;;;;5046774;28;20198;-69
2021/12/27 06:30:58;;;;;;;3.25;2.60;;;4.40;99.90;;;;;;5045674;28;20228;-69
2021/12/27 06:33:25;;;;;;;3.10;2.70;;;4.40;99.90;;;;;;5048015;28;20218;-69
2021/12/27 06:35:52;;;;;;;3.13;2.92;;;4.40;99.90;;;;;;5048965;28;20707;-69
2021/12/27 06:38:21;;;;;;;2.75;2.45;;;4.40;99.90;;;;;;5048725;28;20272;-69
2021/12/27 06:40:48;;;;;;;4.40;3.40;;;4.50;99.90;;;;;;5048948;28;20593;-71
2021/12/27 06:43:15;;;;;;;4.75;3.50;;;4.40;99.90;;;;;;5048761;28;20351;-70
2021/12/27 06:45:42;;;;;;;2.28;2.05;;;4.40;99.90;;;;;;5049130;28;20214;-70
2021/12/27 06:48:09;;;;;;;3.45;3.15;;;4.40;99.90;;;;;;5044534;28;20209;-70
2021/12/27 06:50:36;;;;;;;3.35;2.75;;;4.30;99.90;;;;;;5043043;28;20736;-70
2021/12/27 06:53:03;;;;;;;3.25;3.05;;;4.30;99.90;;;;;;5043382;28;20225;-70
2021/12/27 06:55:31;;;;;;;4.05;3.55;;;4.30;99.90;;;;;;5044133;28;20644;-70
2021/12/27 06:57:57;;;;;;;6.78;3.47;;;4.20;99.90;;;;;;5038392;28;20750;-70
2021/12/27 07:00:24;;;;;;;3.42;3.13;;;4.20;99.90;;;;;;5044591;28;20206;-70
2021/12/27 07:02:51;;;;;;;4.55;3.40;;;4.20;99.90;;;;;;5044871;28;20252;-70
2021/12/27 07:05:18;;;;;;;3.72;3.42;;;4.20;99.90;;;;;;5048272;28;20205;-70
2021/12/27 07:07:45;;;;;;;4.50;4.10;;;4.20;99.90;;;;;;5037847;28;20277;-70
2021/12/27 07:10:15;;;;;;;3.13;2.83;;;4.30;99.90;;;;;;5048026;28;20621;-69
2021/12/27 07:12:44;;;;;;;3.55;2.53;;;4.30;99.90;;;;;;5043614;28;20707;-69
2021/12/27 07:15:11;;;;;;;5.60;2.97;;;4.30;99.90;;;;;;5048092;28;20226;-69
2021/12/27 07:17:38;;;;;;;3.30;3.00;;;4.30;99.90;;;;;;5046607;28;20280;-69
2021/12/27 07:20:06;;;;;;;3.50;3.20;;;4.30;99.90;;;;;;5049335;28;20436;-70
2021/12/27 07:22:33;;;;;;;2.85;2.00;;;4.30;99.90;;;;;;5041457;28;20292;-69
2021/12/27 07:25:00;;;;;;;2.38;2.17;;;4.30;99.90;;;;;;5049195;28;20573;-69
2021/12/27 07:27:27;;;;;;;2.90;2.65;;;4.20;99.90;;;;;;5048640;28;20210;-69
2021/12/27 07:29:55;;;;;;;3.67;2.92;;;4.20;99.90;;;;;;5043264;28;20282;-69
2021/12/27 07:32:21;;;;;;;3.70;2.90;;;4.00;99.90;;;;;;5042765;28;20371;-69
2021/12/27 07:34:49;;;;;;;2.30;2.10;;;4.00;99.90;;;;;;5044829;28;20643;-70
2021/12/27 07:37:16;;;;;;;2.38;2.22;;;4.00;99.90;;;;;;5041790;28;20604;-69
2021/12/27 07:39:43;;;;;;;3.33;3.08;;;3.90;99.90;;;;;;5041373;28;20202;-70
2021/12/27 07:42:09;;;;;;;3.45;3.15;;;3.90;99.90;;;;;;5047365;28;20315;-69
2021/12/27 07:44:36;;;;;;;3.30;3.05;;;3.80;99.90;;;;;;5047349;28;20218;-69
2021/12/27 07:47:05;;;;;;;5.63;3.20;;;3.80;99.90;;;;;;5047426;28;20262;-70
2021/12/27 07:49:31;;;;;;;3.97;2.70;;;3.80;99.90;;;;;;5050333;28;20268;-71
2021/12/27 07:51:58;;;;;;;5.30;2.70;;;3.80;99.90;;;;;;5058409;28;20587;-68
2021/12/27 07:54:25;;;;;;;3.17;2.30;;;3.90;99.90;;;;;;5062738;28;20190;-68
2021/12/27 07:56:52;;;;;;;4.65;2.97;;;3.90;99.90;;;;;;5056744;28;20249;-68
2021/12/27 07:59:18;;;;;;;4.47;4.07;;;3.90;99.90;;;;;;5046834;28;20673;-70
2021/12/27 08:01:45;;;;;;;3.67;2.63;;;4.00;99.90;;;;;;5046612;28;20582;-69
2021/12/27 08:04:13;;;;;;;3.60;3.33;;;4.00;99.90;;;;;;5043409;28;20320;-72
2021/12/27 08:06:40;;;;;;;2.95;2.75;;;4.00;99.90;;;;;;5045372;28;20198;-74
2021/12/27 08:09:08;;;;;;;2.75;2.55;;;4.10;99.90;;;;;;5042193;28;20274;-73
2021/12/27 08:11:34;;;;;;;2.95;2.67;;;4.10;99.90;;;;;;5047605;28;20249;-73
2021/12/27 08:14:01;;;;;;;2.60;2.40;;;4.20;99.90;;;;;;5044968;28;20282;-73
2021/12/27 08:16:28;;;;;;;3.10;2.65;;;4.30;99.90;;;;;;5043372;28;20283;-73
2021/12/27 08:18:55;;;;;;;2.47;2.28;;;4.30;99.90;;;;;;5044959;28;20320;-73
2021/12/27 08:21:25;;;;;;;4.13;3.15;;;4.40;99.90;;;;;;5042626;28;20202;-73
2021/12/27 08:23:52;;;;;;;3.05;2.58;;;4.40;99.90;;;;;;5047587;28;20218;-73
2021/12/27 08:26:19;;;;;;;3.03;2.35;;;4.50;99.90;;;;;;5046978;28;20198;-73
2021/12/27 08:28:49;;;;;;;3.50;3.15;;;4.50;99.90;;;;;;5043916;28;20719;-73
2021/12/27 08:31:15;;;;;;;2.78;2.58;;;4.60;99.90;;;;;;5045018;28;20501;-72
2021/12/27 08:33:42;;;;;;;6.53;3.28;;;4.70;99.90;;;;;;5045657;28;20226;-73
2021/12/27 08:36:09;;;;;;;4.00;3.67;;;4.70;99.90;;;;;;5046295;28;20216;-73
2021/12/27 08:38:37;;;;;;;3.35;2.67;;;4.80;99.90;;;;;;5046373;28;20244;-73
2021/12/27 08:41:05;;;;;;;3.03;2.72;;;4.80;99.90;;;;;;5046159;28;20230;-73
2021/12/27 08:43:32;;;;;;;2.60;2.40;;;4.90;99.90;;;;;;5045028;28;20758;-73
2021/12/27 08:45:59;;;;;;;3.85;2.97;;;4.90;99.90;;;;;;5041846;28;20221;-73
2021/12/27 08:48:27;;;;;;;4.70;3.15;;;5.00;99.90;;;;;;5044020;28;20213;-73
2021/12/27 08:50:53;;;;;;;3.33;2.72;;;5.00;99.90;;;;;;5042388;28;21456;-74
2021/12/27 08:53:20;;;;;;;2.00;1.80;;;5.00;99.90;;;;;;5046764;28;20703;-73
2021/12/27 08:55:48;;;;;;;5.28;2.97;;;5.10;99.90;;;;;;5046918;28;20214;-74
2021/12/27 08:58:15;;;;;;;3.72;3.42;;;5.10;99.90;;;;;;5046860;28;20332;-73
2021/12/27 09:00:42;;;;;;;4.43;2.85;;;5.10;99.90;;;;;;5046238;28;20350;-74
2021/12/27 09:03:11;;;;;;;6.03;3.45;;;5.10;99.90;;;;;;5046097;28;20217;-74
2021/12/27 09:05:38;;;;;;;4.10;2.30;;;5.10;99.90;;;;;;5045221;28;20293;-74
2021/12/27 09:08:05;;;;;;;2.92;2.63;;;5.20;99.90;;;;;;5046526;28;20304;-72
2021/12/27 09:10:32;;;;;;;4.40;3.10;;;5.10;99.90;;;;;;5046829;28;20210;-72
2021/12/27 09:13:01;;;;;;;3.50;3.20;;;5.20;99.90;;;;;;5049787;28;20226;-74
2021/12/27 09:15:28;;;;;;;3.17;2.92;;;5.20;99.90;;;;;;5044751;28;20253;-74
2021/12/27 09:17:55;;;;;;;5.10;3.95;;;5.20;99.90;;;;;;5046419;28;20251;-75
2021/12/27 09:20:24;;;;;;;3.90;2.65;;;5.20;99.90;;;;;;5041312;28;20221;-75
2021/12/27 09:22:51;;;;;;;3.53;3.28;;;5.20;99.90;;;;;;5044584;28;20234;-76
2021/12/27 09:25:17;;;;;;;3.67;2.83;;;5.20;99.90;;;;;;5033616;28;20195;-76
2021/12/27 09:27:44;;;;;;;3.15;2.72;;;5.20;99.90;;;;;;5043204;28;20537;-67
2021/12/27 09:30:13;;;;;;;3.90;3.22;;;5.20;99.90;;;;;;5039027;28;20224;-67
2021/12/27 09:32:40;;;;;;;4.07;3.22;;;5.30;99.90;;;;;;5038994;28;20313;-73
2021/12/27 09:35:08;;;;;;;2.13;2.03;;;5.30;99.90;;;;;;5037196;28;20343;-73
2021/12/27 09:37:34;;;;;;;9.93;3.33;;;5.40;99.90;;;;;;5041197;28;20221;-73
2021/12/27 09:40:01;;;;;;;3.83;2.75;;;5.40;99.90;;;;;;5040532;28;20243;-73
2021/12/27 09:42:28;;;;;;;6.07;3.80;;;5.50;99.90;;;;;;5041969;28;20233;-72
2021/12/27 09:44:57;;;;;;;5.15;3.42;;;5.50;99.90;;;;;;5044002;28;20206;-75
2021/12/27 09:47:25;;;;;;;2.15;1.98;;;5.50;99.90;;;;;;5046685;28;20198;-76
2021/12/27 09:49:52;;;;;;;4.43;2.80;;;5.50;99.90;;;;;;5042046;28;20198;-75
2021/12/27 09:52:19;;;;;;;5.15;2.53;;;5.60;99.90;;;;;;5045042;28;20303;-73
2021/12/27 09:54:46;;;;;;;3.45;2.72;;;5.70;99.90;;;;;;5040127;28;20250;-75
2021/12/27 09:57:14;;;;;;;3.63;2.50;;;5.70;99.90;;;;;;5037685;28;20663;-73
2021/12/27 09:59:40;;;;;;;3.38;2.72;;;5.60;99.90;;;;;;5039298;28;20267;-73
2021/12/27 10:02:07;;;;;;;2.17;1.95;;;5.60;99.90;;;;;;5046703;28;20232;-72
2021/12/27 10:04:36;;;;;;;3.75;3.45;;;5.70;99.90;;;;;;5044972;28;20197;-74
2021/12/27 10:07:03;;;;;;;4.20;2.92;;;5.80;99.90;;;;;;5038662;28;20632;-73
2021/12/27 10:09:33;;;;;;;3.58;2.17;;;5.90;99.90;;;;;;5038846;28;20206;-73
2021/12/27 10:12:02;;;;;;;3.25;2.72;;;6.00;99.90;;;;;;5044260;28;20302;-75
2021/12/27 10:14:29;;;;;;;3.95;3.65;;;6.00;99.90;;;;;;5045582;28;20275;-75
2021/12/27 10:17:06;;;;;;;7.15;3.08;;;6.20;99.90;;;;;;5043086;28;20205;-74
2021/12/27 10:19:36;;;;;;;4.57;3.17;;;6.50;99.90;;;;;;5042046;28;20209;-72
2021/12/27 10:22:03;;;;;;;2.92;2.75;;;6.80;99.90;;;;;;5045391;28;20225;-72
2021/12/27 10:24:31;;;;;;;4.57;3.17;;;7.10;99.90;;;;;;5045194;28;20298;-73
2021/12/27 10:27:00;;;;;;;2.85;2.65;;;7.40;99.90;;;;;;5037499;28;20660;-73
2021/12/27 10:29:28;;;;;;;4.13;3.45;;;7.70;99.90;;;;;;5046281;28;20296;-73
2021/12/27 10:32:04;;;;;;;4.57;3.10;;;7.80;99.90;;;;;;5045304;28;20206;-73
2021/12/27 10:34:33;;;;;;;2.87;2.53;;;7.80;99.90;;;;;;5041163;28;20199;-72
2021/12/27 10:37:08;;;;;;;3.25;3.05;;;7.80;99.90;;;;;;5042691;28;20504;-73
2021/12/27 10:39:49;;;;;;;3.80;2.97;;;7.80;99.90;;;;;;5039627;28;20623;-73
2021/12/27 10:42:18;;;;;;;3.70;3.13;;;7.80;99.90;;;;;;5039418;28;20545;-73
2021/12/27 10:44:45;;;;;;;2.80;2.60;;;7.70;99.90;;;;;;5047638;28;20448;-72
2021/12/27 10:47:34;;;;;;;3.05;2.25;;;7.60;99.90;;;;;;5045848;28;20465;-71
2021/12/27 10:50:05;;;;;;;3.05;2.50;;;7.60;99.90;;;;;;5036645;28;20203;-72
2021/12/27 10:52:51;;;;;;;3.57;2.70;;;7.60;99.90;;;;;;5042170;28;20222;-74
2021/12/27 10:55:21;;;;;;;3.37;3.10;;;7.70;99.90;;;;;;5045587;28;20456;-72
2021/12/27 10:57:48;;;;;;;3.63;2.93;;;7.90;99.90;;;;;;5044861;28;20472;-72
2021/12/27 11:00:18;;;;;;;2.50;2.40;;;7.90;99.90;;;;;;5044602;28;20514;-72
2021/12/27 11:02:45;;;;;;;3.57;3.27;;;8.00;99.90;;;;;;5047145;28;21046;-74
2021/12/27 11:05:13;;;;;;;3.28;2.67;;;8.00;99.90;;;;;;5042527;28;20456;-72
2021/12/27 11:07:41;;;;;;;3.45;3.15;;;8.00;99.90;;;;;;5047344;28;20198;-73
2021/12/27 11:10:09;;;;;;;2.55;2.20;;;7.90;99.90;;;;;;5047842;28;20284;-73
2021/12/27 11:12:36;;;;;;;1.88;1.73;;;7.80;99.90;;;;;;5049359;28;20283;-73
2021/12/27 11:15:09;;;;;;;2.78;2.53;;;7.70;99.90;;;;;;5046561;28;20252;-72
2021/12/27 11:17:36;;;;;;;4.22;3.00;;;7.60;99.90;;;;;;5043849;28;20996;-73
2021/12/27 11:20:04;;;;;;;1.53;1.43;;;7.50;99.90;;;;;;5048736;28;20232;-74
2021/12/27 11:22:31;;;;;;;2.00;1.85;;;7.50;99.90;;;;;;5048647;28;20480;-74
2021/12/27 11:25:03;;;;;;;2.05;1.85;;;7.50;99.90;;;;;;5043050;28;20229;-74
2021/12/27 11:27:35;;;;;;;2.97;2.70;;;7.50;99.90;;;;;;5048357;28;20209;-72
2021/12/27 11:30:12;;;;;;;2.85;1.88;;;7.50;99.90;;;;;;5048501;28;20221;-73
2021/12/27 11:33:02;;;;;;;6.72;2.78;;;7.50;99.90;;;;;;5048317;28;20221;-73
2021/12/27 11:35:32;;;;;;;2.47;2.30;;;7.50;99.90;;;;;;5041701;28;20260;-74
2021/12/27 11:38:01;;;;;;;2.67;2.35;;;7.60;99.90;;;;;;5047916;28;20488;-73
2021/12/27 11:40:40;;;;;;;4.30;2.40;;;7.70;99.90;;;;;;5047100;28;20210;-74
2021/12/27 11:43:07;;;;;;;3.90;2.30;;;7.70;99.90;;;;;;5047925;28;20645;-72
2021/12/27 11:45:42;;;;;;;3.00;2.80;;;7.80;99.90;;;;;;5048318;28;20244;-74
2021/12/27 11:48:12;;;;;;;2.30;1.97;;;7.90;99.90;;;;;;5046935;28;20541;-73
2021/12/27 11:51:02;;;;;;;3.17;2.90;;;8.00;99.90;;;;;;5041419;28;20454;-73
2021/12/27 11:53:31;;;;;;;3.22;2.38;;;8.10;99.90;;;;;;5047409;28;20599;-74
2021/12/27 11:55:58;;;;;;;2.97;2.60;;;8.10;99.90;;;;;;5048140;28;20218;-74
2021/12/27 11:58:35;;;;;;;2.63;2.43;;;8.10;99.90;;;;;;5045396;28;20484;-74
2021/12/27 12:01:02;;;;;;;3.03;2.50;;;8.10;99.90;;;;;;5042591;28;20507;-74
2021/12/27 12:03:40;;;;;;;2.37;2.00;;;8.10;99.90;;;;;;5047042;28;20834;-73
2021/12/27 12:06:08;;;;;;;3.00;2.33;;;8.10;99.90;;;;;;5045364;28;20456;-73
2021/12/27 12:08:51;;;;;;;2.50;2.30;;;8.00;99.90;;;;;;5047825;28;20445;-74
2021/12/27 12:11:18;;;;;;;2.65;2.35;;;8.10;99.90;;;;;;5038661;28;20282;-73
2021/12/27 12:13:47;;;;;;;2.50;1.93;;;8.10;99.90;;;;;;5056779;28;20229;-74
2021/12/27 12:16:15;;;;;;;2.90;2.20;;;8.20;99.90;;;;;;5059355;28;20572;-74
2021/12/27 12:19:04;;;;;;;2.43;2.10;;;8.20;99.90;;;;;;5050662;28;20555;-74
2021/12/27 12:21:40;;;;;;;2.40;2.10;;;8.30;99.90;;;;;;5046231;28;20945;-73
2021/12/27 12:24:16;;;;;;;2.20;1.83;;;8.40;99.90;;;;;;5043831;28;20810;-75
2021/12/27 12:26:51;;;;;;;1.57;1.40;;;8.40;99.90;;;;;;5049209;28;20456;-73
2021/12/27 12:29:17;;;;;;;3.27;2.73;;;8.40;99.90;;;;;;5040695;28;20507;-74
2021/12/27 12:31:44;;;;;;;2.00;1.80;;;8.40;99.90;;;;;;5045687;28;20479;-74
2021/12/27 12:34:15;;;;;;;3.20;2.90;;;8.40;99.90;;;;;;5045858;28;20495;-73
2021/12/27 12:36:47;;;;;;;2.13;1.93;;;8.40;99.90;;;;;;5047545;28;20453;-73
2021/12/27 12:39:14;;;;;;;1.70;1.60;;;8.40;99.90;;;;;;5045828;28;20492;-74
2021/12/27 12:41:41;;;;;;;1.30;1.20;;;8.30;99.90;;;;;;5043933;28;20879;-74
2021/12/27 12:44:08;;;;;;;1.90;1.73;;;8.30;99.90;;;;;;5045962;28;20440;-73
2021/12/27 12:46:38;;;;;;;2.80;2.30;;;8.30;99.90;;;;;;5045656;28;20529;-75
2021/12/27 12:49:07;;;;;;;2.03;1.63;;;8.20;99.90;;;;;;5045120;28;20456;-75
2021/12/27 12:51:41;;;;;;;2.03;1.70;;;8.20;99.90;;;;;;5038749;28;20526;-75
2021/12/27 12:54:22;;;;;;;1.40;1.30;;;8.20;99.90;;;;;;5037324;28;20471;-73
2021/12/27 12:56:50;;;;;;;1.77;1.67;;;8.20;99.90;;;;;;5047547;28;20959;-73
2021/12/27 12:59:20;;;;;;;1.57;1.47;;;8.30;99.90;;;;;;5040823;28;20485;-71
2021/12/27 13:01:55;;;;;;;1.40;1.30;;;8.30;99.90;;;;;;5043026;28;20583;-70
2021/12/27 13:04:22;;;;;;;6.53;2.57;;;8.40;99.90;;;;;;5044257;28;20579;-71
2021/12/27 13:06:50;;;;;;;3.30;1.80;;;8.50;99.90;;;;;;5046419;28;20463;-69